Sirena 3 — WDD7469 — position and weather

sailwx.info

Track history (hours):
 
Tides and Currents Weather Stations Pressure Air Temp Water Temp Dewpoint Dewpoint Depression Visibility Wind Speed Wind Dir Waves Ship Positions

Sirena 3

More information available from US FCC via Universal Licensing System and Coast Guard Vessel Documentation Center.

Last reported at 2014-Aug-19 22:16 UTC. Time now 2014-Aug-21 14:10 UTC.
Position N 41°02' W 073°33'.

Length 18 m.

Type: Sailing vessel. MMSI: 367186880.

Date/timePositionNaut miles runAvg speedWind from/ knotsBaromVisibWave heightAir tempDewpointWater temp
2014-Aug-19 22:16N 41°02' W 073°33'3 4.8
2014-Aug-19 21:33N 41°01' W 073°29'7 7.4
2014-Aug-19 20:33N 41°00' W 073°19'7 6.7
2014-Aug-19 19:33N 41°02' W 073°11'6 6.4
2014-Aug-19 18:33N 41°04' W 073°02'7 6.6
2014-Aug-19 17:33N 41°08' W 072°56'8 7.6
2014-Aug-19 16:33N 41°06' W 072°47'6 5.8
2014-Aug-19 15:33N 41°07' W 072°39'7 6.9
2014-Aug-19 14:33N 41°12' W 072°33'5 5.2
2014-Aug-19 13:33N 41°11' W 072°27'7 7.2
2014-Aug-19 12:33N 41°10' W 072°17'7 7.2
2014-Aug-19 11:33N 41°09' W 072°08'8 8.2
2014-Aug-19 10:33N 41°04' W 071°59'2 1.5
2014-Aug-19 09:32N 41°03' W 071°58'0 0.0
2014-Aug-18 12:32N 41°03' W 071°58'0 0.0
2014-Aug-18 11:32N 41°03' W 071°58'0 0.0
2014-Aug-18 10:32N 41°03' W 071°58'0 0.0
2014-Aug-18 09:29N 41°03' W 071°58'0 0.0
2014-Aug-18 08:32N 41°03' W 071°58'0 0.0
2014-Aug-18 07:32N 41°03' W 071°58'0 0.0
2014-Aug-18 06:32N 41°03' W 071°58'0 0.0
2014-Aug-18 05:32N 41°03' W 071°58'0 0.0
2014-Aug-18 04:32N 41°03' W 071°58'0 0.0
2014-Aug-18 03:32N 41°03' W 071°58'0 0.0
2014-Aug-18 02:32N 41°03' W 071°58'0 0.0
2014-Aug-18 01:32N 41°03' W 071°58'0 0.0
2014-Aug-18 00:29N 41°03' W 071°58'0 0.0
2014-Aug-17 18:32N 41°03' W 071°58'3 2.9
2014-Aug-17 17:33N 41°05' W 071°56'8 8.0
2014-Aug-17 16:33N 41°09' W 071°47'6 5.5
2014-Aug-17 15:33N 41°14' W 071°42'7 6.6
2014-Aug-17 14:33N 41°19' W 071°38'5 5.3
2014-Aug-17 13:33N 41°20' W 071°31'5 4.6
2014-Aug-17 12:33N 41°22' W 071°25'5 5.4
2014-Aug-17 11:33N 41°27' W 071°22'2 2.0
2014-Aug-17 10:32N 41°29' W 071°20'0 0.0
2014-Aug-16 22:31N 41°29' W 071°20'0 0.0
2014-Aug-16 13:33N 41°29' W 071°20'1 0.8
2014-Aug-16 12:33N 41°29' W 071°19'1 0.1
2014-Aug-16 02:18N 41°29' W 071°20'0 0.0
2014-Aug-16 01:33N 41°29' W 071°20'0 0.0
2014-Aug-16 00:33N 41°29' W 071°20'0 0.0
2014-Aug-15 23:33N 41°29' W 071°20'0 0.0
2014-Aug-15 15:27N 41°29' W 071°20'0 0.3
2014-Aug-15 14:32N 41°29' W 071°20'0 0.0
2014-Aug-15 12:30N 41°29' W 071°20'0 0.0
2014-Aug-14 19:32N 41°29' W 071°20'0 0.0
2014-Aug-14 18:32N 41°29' W 071°20'3 2.6
2014-Aug-14 17:33N 41°26' W 071°21'6 5.5
2014-Aug-14 16:33N 41°27' W 071°14'5 4.8
2014-Aug-14 15:32N 41°27' W 071°07'7 6.9
2014-Aug-14 14:32N 41°22' W 071°01'14 6.1
2014-Aug-14 12:19N 41°27' W 070°44'11 0.2
2014-Aug-12 15:04N 41°23' W 070°30'0 0.0
2014-Aug-11 17:29N 41°23' W 070°30'4 3.9
2014-Aug-11 16:34N 41°26' W 070°28'8 7.7
2014-Aug-11 15:33N 41°26' W 070°18'6 5.8
2014-Aug-11 14:34N 41°24' W 070°10'5 5.2
2014-Aug-11 13:32N 41°20' W 070°07'  
Track history (hours):
 
Tides and Currents Weather Stations Pressure Air Temp Water Temp Dewpoint Dewpoint Depression Visibility Wind Speed Wind Dir Waves Ship Positions

Sirena 3

More information available from US FCC via Universal Licensing System and Coast Guard Vessel Documentation Center.

Last reported at 2014-Aug-19 22:16 UTC. Time now 2014-Aug-21 14:10 UTC.
Position N 41°02' W 073°33'.

Length 18 m.

Type: Sailing vessel. MMSI: 367186880.

Date/timePositionNaut miles runAvg speedWind from/ knotsBaromVisibWave heightAir tempDewpointWater temp
2014-Aug-19 22:16N 41°02' W 073°33'3 4.8
2014-Aug-19 21:33N 41°01' W 073°29'7 7.4
2014-Aug-19 20:33N 41°00' W 073°19'7 6.7
2014-Aug-19 19:33N 41°02' W 073°11'6 6.4
2014-Aug-19 18:33N 41°04' W 073°02'7 6.6
2014-Aug-19 17:33N 41°08' W 072°56'8 7.6
2014-Aug-19 16:33N 41°06' W 072°47'6 5.8
2014-Aug-19 15:33N 41°07' W 072°39'7 6.9
2014-Aug-19 14:33N 41°12' W 072°33'5 5.2
2014-Aug-19 13:33N 41°11' W 072°27'7 7.2
2014-Aug-19 12:33N 41°10' W 072°17'7 7.2
2014-Aug-19 11:33N 41°09' W 072°08'8 8.2
2014-Aug-19 10:33N 41°04' W 071°59'2 1.5
2014-Aug-19 09:32N 41°03' W 071°58'0 0.0
2014-Aug-18 12:32N 41°03' W 071°58'0 0.0
2014-Aug-18 11:32N 41°03' W 071°58'0 0.0
2014-Aug-18 10:32N 41°03' W 071°58'0 0.0
2014-Aug-18 09:29N 41°03' W 071°58'0 0.0
2014-Aug-18 08:32N 41°03' W 071°58'0 0.0
2014-Aug-18 07:32N 41°03' W 071°58'0 0.0
2014-Aug-18 06:32N 41°03' W 071°58'0 0.0
2014-Aug-18 05:32N 41°03' W 071°58'0 0.0
2014-Aug-18 04:32N 41°03' W 071°58'0 0.0
2014-Aug-18 03:32N 41°03' W 071°58'0 0.0
2014-Aug-18 02:32N 41°03' W 071°58'0 0.0
2014-Aug-18 01:32N 41°03' W 071°58'0 0.0
2014-Aug-18 00:29N 41°03' W 071°58'0 0.0
2014-Aug-17 18:32N 41°03' W 071°58'3 2.9
2014-Aug-17 17:33N 41°05' W 071°56'8 8.0
2014-Aug-17 16:33N 41°09' W 071°47'6 5.5
2014-Aug-17 15:33N 41°14' W 071°42'7 6.6
2014-Aug-17 14:33N 41°19' W 071°38'5 5.3
2014-Aug-17 13:33N 41°20' W 071°31'5 4.6
2014-Aug-17 12:33N 41°22' W 071°25'5 5.4
2014-Aug-17 11:33N 41°27' W 071°22'2 2.0
2014-Aug-17 10:32N 41°29' W 071°20'0 0.0
2014-Aug-16 22:31N 41°29' W 071°20'0 0.0
2014-Aug-16 13:33N 41°29' W 071°20'1 0.8
2014-Aug-16 12:33N 41°29' W 071°19'1 0.1
2014-Aug-16 02:18N 41°29' W 071°20'0 0.0
2014-Aug-16 01:33N 41°29' W 071°20'0 0.0
2014-Aug-16 00:33N 41°29' W 071°20'0 0.0
2014-Aug-15 23:33N 41°29' W 071°20'0 0.0
2014-Aug-15 15:27N 41°29' W 071°20'0 0.3
2014-Aug-15 14:32N 41°29' W 071°20'0 0.0
2014-Aug-15 12:30N 41°29' W 071°20'0 0.0
2014-Aug-14 19:32N 41°29' W 071°20'0 0.0
2014-Aug-14 18:32N 41°29' W 071°20'3 2.6
2014-Aug-14 17:33N 41°26' W 071°21'6 5.5
2014-Aug-14 16:33N 41°27' W 071°14'5 4.8
2014-Aug-14 15:32N 41°27' W 071°07'7 6.9
2014-Aug-14 14:32N 41°22' W 071°01'14 6.1
2014-Aug-14 12:19N 41°27' W 070°44'11 0.2
2014-Aug-12 15:04N 41°23' W 070°30'0 0.0
2014-Aug-11 17:29N 41°23' W 070°30'4 3.9
2014-Aug-11 16:34N 41°26' W 070°28'8 7.7
2014-Aug-11 15:33N 41°26' W 070°18'6 5.8
2014-Aug-11 14:34N 41°24' W 070°10'5 5.2
2014-Aug-11 13:32N 41°20' W 070°07'  

Dump ship's entire track history